Погода Гузгаловкана неделю

Минская область, Белоруссия

24 - 30 мая
  • 24мая
    Сегодня
    +11°
    +25°
    Практически безоблачно
    ВремяПогодаТемператураВлажностьДавлениеВетер, м/сВероятность осадков
    00:00Облачно с прояснениями+15°C75 %750 мм4.5 м/с2 %
    03:00Практически безоблачно+14°C61 %751 мм4.6 м/с2 %
    06:00Практически безоблачно+12°C63 %751 мм4.5 м/с2 %
    09:00Ясно и безоблачно+18°C59 %752 мм5.1 м/с2 %
    12:00Ясно и безоблачно+22°C53 %753 мм5.1 м/с2 %
    15:00Практически безоблачно+25°C47 %752 мм6.1 м/с2 %
    18:00Ясно и безоблачно+24°C47 %751 мм5.6 м/с1 %
    21:00Ясно и безоблачно+20°C61 %752 мм3.5 м/с2 %
  • 25мая
    Суббота
    +11°
    +25°
    Облачно с прояснениями
    ВремяПогодаТемператураВлажностьДавлениеВетер, м/сВероятность осадков
    00:00Небольшая облачность+15°C65 %752 мм4.2 м/с2 %
    03:00Ясно и безоблачно+13°C67 %752 мм3.6 м/с2 %
    06:00Ясно и безоблачно+12°C68 %752 мм3.5 м/с2 %
    09:00Ясно и безоблачно+19°C58 %752 мм3.5 м/с2 %
    12:00Облачно с прояснениями+22°C51 %752 мм3.8 м/с3 %
    15:00Облачно с прояснениями+24°C49 %751 мм4.4 м/с33 %
    18:00Облачно с прояснениями+24°C44 %751 мм4.6 м/с21 %
    21:00Облачно с прояснениями+19°C73 %750 мм1.4 м/с10 %
  • 26мая
    Воскресенье
    +11°
    +24°
    Облачно с прояснениями
    ВремяПогодаТемператураВлажностьДавлениеВетер, м/сВероятность осадков
    00:00Облачно с прояснениями+14°C68 %750 мм2.4 м/с2 %
    03:00Облачно с прояснениями+12°C62 %750 мм2.4 м/с1 %
    06:00Облачно с прояснениями+12°C67 %750 мм2.2 м/с2 %
    09:00Облачно с прояснениями+18°C52 %751 мм2.1 м/с1 %
    12:00Ясно и безоблачно+22°C30 %752 мм3.5 м/с2 %
    15:00Облачно с прояснениями+24°C30 %751 мм3.3 м/с2 %
    18:00Небольшая облачность+24°C33 %751 мм3.1 м/с2 %
    21:00Ясно и безоблачно+19°C61 %750 мм2.4 м/с2 %
  • 27мая
    Понедельник
    +13°
    +26°
    Облачно с прояснениями
    ВремяПогодаТемператураВлажностьДавлениеВетер, м/сВероятность осадков
    00:00Ясно и безоблачно+16°C55 %751 мм0.4 м/с2 %
    03:00Ясно и безоблачно+14°C72 %751 мм1.1 м/с2 %
    06:00Ясно и безоблачно+13°C76 %751 мм1.6 м/с2 %
    09:00Практически безоблачно+20°C47 %751 мм2.3 м/с2 %
    12:00Небольшая облачность+24°C34 %751 мм3.5 м/с2 %
    15:00Облачно с прояснениями+26°C33 %750 мм4.0 м/с6 %
    18:00Облачно с прояснениями+26°C35 %750 мм3.3 м/с17 %
    21:00Ясно и безоблачно+20°C60 %749 мм2.3 м/с5 %
  • 28мая
    Вторник
    +13°
    +25°
    Ясно и безоблачно
    ВремяПогодаТемператураВлажностьДавлениеВетер, м/сВероятность осадков
    00:00Ясно и безоблачно+17°C60 %749 мм0.4 м/с2 %
    03:00Ясно и безоблачно+14°C76 %749 мм1.0 м/с2 %
    06:00Ясно и безоблачно+13°C85 %749 мм2.1 м/с2 %
    09:00Ясно и безоблачно+20°C50 %749 мм2.6 м/с2 %
    12:00Ясно и безоблачно+24°C35 %749 мм4.3 м/с5 %
    15:00Ясно и безоблачно+24°C31 %748 мм3.6 м/с10 %
    18:00Небольшая облачность+25°C33 %748 мм3.2 м/с10 %
    21:00Ясно и безоблачно+20°C55 %747 мм2.1 м/с6 %
Мы используем cookies
Соглашаюсь